Time;durP1;ratioP1;P1;durP2;ratioP2;P2;SDS_P1;SDS_P2;PMS_P1;PMS_P2;Temp;Humidity;BMP_temperature;BMP_pressure;BME280_temperature;BME280_humidity;BME280_pressure;Samples;Min_cycle;Max_cycle;Signal;HPM_P1;HPM_P2
2022/05/27 00:00:21;;;;;;;1.67;1.50;;;;;;;;;;4879127;29;20099;-79
2022/05/27 00:02:50;;;;;;;3.22;1.42;;;;;;;;;;4864632;29;20052;-79
2022/05/27 00:05:19;;;;;;;1.88;1.50;;;;;;;;;;4864805;29;20136;-79
2022/05/27 00:07:46;;;;;;;2.00;1.45;;;;;;;;;;4899988;29;20301;-79
2022/05/27 00:10:14;;;;;;;1.40;1.30;;;;;;;;;;4893750;29;20109;-79
2022/05/27 00:12:42;;;;;;;2.40;1.40;;;;;;;;;;4893872;29;20052;-80
2022/05/27 00:15:13;;;;;;;2.63;1.37;;;;;;;;;;4872773;29;20056;-79
2022/05/27 00:17:40;;;;;;;1.25;1.15;;;;;;;;;;4891408;29;20047;-79
2022/05/27 00:20:09;;;;;;;1.25;1.08;;;;;;;;;;4886584;29;20056;-78
2022/05/27 00:22:36;;;;;;;3.22;1.40;;;;;;;;;;4864469;29;20556;-79
2022/05/27 00:25:04;;;;;;;1.50;1.40;;;;;;;;;;4888262;29;20068;-79
2022/05/27 00:27:31;;;;;;;1.50;1.40;;;;;;;;;;4874339;29;20056;-79
2022/05/27 00:29:59;;;;;;;1.33;1.23;;;;;;;;;;4871013;29;20071;-79
2022/05/27 00:32:29;;;;;;;3.30;1.30;;;;;;;;;;4897769;29;20071;-79
2022/05/27 00:34:56;;;;;;;1.70;1.35;;;;;;;;;;4883562;29;20476;-79
2022/05/27 00:37:24;;;;;;;8.70;1.45;;;;;;;;;;4850378;29;20080;-78
2022/05/27 00:39:52;;;;;;;1.98;1.15;;;;;;;;;;4893072;29;20048;-79
2022/05/27 00:42:19;;;;;;;1.33;1.20;;;;;;;;;;4897299;29;20068;-79
2022/05/27 00:44:47;;;;;;;2.03;1.27;;;;;;;;;;4886468;29;20112;-79
2022/05/27 00:47:16;;;;;;;1.48;1.27;;;;;;;;;;4872480;29;20104;-79
2022/05/27 00:49:46;;;;;;;2.42;1.30;;;;;;;;;;4885306;29;20076;-79
2022/05/27 00:52:16;;;;;;;1.08;1.08;;;;;;;;;;4894097;29;20040;-79
2022/05/27 00:54:44;;;;;;;1.48;1.20;;;;;;;;;;4871890;29;20053;-79
2022/05/27 00:57:15;;;;;;;1.15;1.13;;;;;;;;;;4875419;29;20045;-80
2022/05/27 00:59:46;;;;;;;2.25;1.20;;;;;;;;;;4887637;29;20041;-79
2022/05/27 01:02:17;;;;;;;1.40;1.08;;;;;;;;;;4852278;29;20083;-78
2022/05/27 01:04:45;;;;;;;1.10;1.10;;;;;;;;;;4894731;29;20044;-79
2022/05/27 01:07:12;;;;;;;1.95;1.20;;;;;;;;;;4852522;29;20041;-79
2022/05/27 01:09:41;;;;;;;1.30;1.20;;;;;;;;;;4853277;29;20059;-79
2022/05/27 01:12:15;;;;;;;1.67;1.40;;;;;;;;;;4872056;29;20476;-79
2022/05/27 01:15:01;;;;;;;1.27;1.17;;;;;;;;;;4878183;29;20572;-79
2022/05/27 01:17:35;;;;;;;1.58;1.40;;;;;;;;;;4893698;29;20498;-79
2022/05/27 01:20:24;;;;;;;1.55;1.48;;;;;;;;;;4889387;29;20463;-79
2022/05/27 01:22:54;;;;;;;1.40;1.40;;;;;;;;;;4898324;29;20040;-79
2022/05/27 01:25:33;;;;;;;1.58;1.48;;;;;;;;;;4864913;29;20105;-79
2022/05/27 01:28:24;;;;;;;2.58;1.40;;;;;;;;;;4888188;29;20036;-79
2022/05/27 01:30:57;;;;;;;2.08;1.70;;;;;;;;;;4874061;29;20463;-79
2022/05/27 01:33:37;;;;;;;1.70;1.60;;;;;;;;;;4895985;29;20045;-79
2022/05/27 01:36:31;;;;;;;1.88;1.60;;;;;;;;;;4866090;29;20139;-79
2022/05/27 01:39:08;;;;;;;1.60;1.50;;;;;;;;;;4898915;29;20183;-80
2022/05/27 01:41:44;;;;;;;1.58;1.48;;;;;;;;;;4878176;29;20051;-79
2022/05/27 01:44:15;;;;;;;1.65;1.55;;;;;;;;;;4919777;29;20044;-79
2022/05/27 01:46:45;;;;;;;3.73;1.80;;;;;;;;;;4907848;29;20081;-79
2022/05/27 01:49:15;;;;;;;3.22;1.58;;;;;;;;;;4866880;29;20511;-80
2022/05/27 01:51:46;;;;;;;3.03;1.40;;;;;;;;;;4881816;29;20052;-79
2022/05/27 01:54:19;;;;;;;1.63;1.48;;;;;;;;;;4879090;29;20456;-79
2022/05/27 01:56:51;;;;;;;1.95;1.42;;;;;;;;;;4877810;29;20056;-79
2022/05/27 01:59:27;;;;;;;1.60;1.50;;;;;;;;;;4885287;29;20052;-79
2022/05/27 02:02:08;;;;;;;1.35;1.35;;;;;;;;;;4888538;29;20037;-79
2022/05/27 02:04:38;;;;;;;2.05;1.40;;;;;;;;;;4863745;29;20224;-79
2022/05/27 02:07:09;;;;;;;3.33;1.67;;;;;;;;;;4899537;29;20052;-79
2022/05/27 02:09:44;;;;;;;1.67;1.45;;;;;;;;;;4888387;29;20095;-79
2022/05/27 02:12:17;;;;;;;1.55;1.45;;;;;;;;;;4908120;29;20147;-79
2022/05/27 02:14:46;;;;;;;4.57;1.65;;;;;;;;;;4893927;29;20132;-80
2022/05/27 02:17:17;;;;;;;2.17;1.60;;;;;;;;;;4899229;29;20048;-79
2022/05/27 02:19:44;;;;;;;1.60;1.48;;;;;;;;;;4901755;29;20048;-80
2022/05/27 02:22:17;;;;;;;3.08;1.52;;;;;;;;;;4878843;29;20084;-79
2022/05/27 02:25:06;;;;;;;3.05;1.70;;;;;;;;;;4901511;29;20052;-79
2022/05/27 02:27:39;;;;;;;4.35;1.70;;;;;;;;;;4886974;29;20044;-79
2022/05/27 02:30:08;;;;;;;2.22;1.70;;;;;;;;;;4903661;29;20045;-79
2022/05/27 02:35:07;;;;;;;1.85;1.75;;;;;;;;;;4897883;29;20068;-79
2022/05/27 02:35:38;;;;;;;1.80;1.70;;;;;;;;;;4891165;29;20502;-79
2022/05/27 02:38:05;;;;;;;1.73;1.60;;;;;;;;;;4885980;29;20071;-79
2022/05/27 02:40:52;;;;;;;1.77;1.65;;;;;;;;;;4893941;29;20105;-79
2022/05/27 02:43:27;;;;;;;1.80;1.70;;;;;;;;;;4898555;29;20136;-80
2022/05/27 02:46:04;;;;;;;1.90;1.77;;;;;;;;;;4895437;29;20132;-79
2022/05/27 02:48:47;;;;;;;1.98;1.85;;;;;;;;;;4897103;29;20596;-79
2022/05/27 02:51:22;;;;;;;4.85;1.60;;;;;;;;;;4894234;29;20056;-80
2022/05/27 02:53:55;;;;;;;4.00;1.65;;;;;;;;;;4896406;29;20052;-80
2022/05/27 02:56:26;;;;;;;1.90;1.80;;;;;;;;;;4903786;29;20108;-79
2022/05/27 02:58:54;;;;;;;1.80;1.70;;;;;;;;;;4914427;29;20052;-79
2022/05/27 03:01:22;;;;;;;4.60;2.00;;;;;;;;;;4892539;29;20045;-80
2022/05/27 03:03:50;;;;;;;2.00;1.90;;;;;;;;;;4887970;29;20510;-80
2022/05/27 03:06:23;;;;;;;2.40;2.17;;;;;;;;;;4904227;29;20037;-79
2022/05/27 03:09:00;;;;;;;2.33;1.90;;;;;;;;;;4914506;29;20054;-79
2022/05/27 03:11:33;;;;;;;2.05;1.92;;;;;;;;;;4883761;29;20045;-79
2022/05/27 03:14:10;;;;;;;3.72;2.13;;;;;;;;;;4882601;29;20057;-79
2022/05/27 03:16:40;;;;;;;2.17;1.98;;;;;;;;;;4903915;29;20048;-79
2022/05/27 03:19:27;;;;;;;2.00;1.90;;;;;;;;;;4887257;29;20064;-79
2022/05/27 03:22:06;;;;;;;4.07;2.00;;;;;;;;;;4899220;29;20044;-79
2022/05/27 03:24:43;;;;;;;2.90;1.90;;;;;;;;;;4897031;29;20102;-79
2022/05/27 03:27:18;;;;;;;2.15;1.80;;;;;;;;;;4895897;29;20528;-79
2022/05/27 03:29:52;;;;;;;1.92;1.83;;;;;;;;;;4919463;29;20096;-79
2022/05/27 03:32:38;;;;;;;2.35;1.77;;;;;;;;;;4882569;29;20511;-79
2022/05/27 03:35:13;;;;;;;1.80;1.70;;;;;;;;;;4898374;29;20076;-79
2022/05/27 03:37:44;;;;;;;2.08;1.80;;;;;;;;;;4897862;29;20060;-79
2022/05/27 03:40:20;;;;;;;3.05;1.90;;;;;;;;;;4912436;29;20048;-79
2022/05/27 03:42:47;;;;;;;1.85;1.70;;;;;;;;;;4901985;29;20080;-79
2022/05/27 03:45:17;;;;;;;4.20;2.00;;;;;;;;;;4890406;29;20044;-79
2022/05/27 03:47:45;;;;;;;2.50;1.58;;;;;;;;;;4876586;29;20288;-79
2022/05/27 03:50:21;;;;;;;1.92;1.83;;;;;;;;;;4898593;29;20063;-79
2022/05/27 03:52:50;;;;;;;2.00;1.90;;;;;;;;;;4871264;29;20079;-80
2022/05/27 03:55:19;;;;;;;2.65;1.88;;;;;;;;;;4903214;29;20131;-79
2022/05/27 03:57:46;;;;;;;2.13;2.03;;;;;;;;;;4891263;29;20037;-79
2022/05/27 04:00:14;;;;;;;2.08;1.98;;;;;;;;;;4901580;29;20052;-79
2022/05/27 04:02:42;;;;;;;2.88;2.03;;;;;;;;;;4900362;29;20131;-79
2022/05/27 04:05:10;;;;;;;1.70;1.65;;;;;;;;;;4900521;29;20457;-79
2022/05/27 04:07:38;;;;;;;3.20;2.30;;;;;;;;;;4896219;29;20489;-79
2022/05/27 04:10:08;;;;;;;1.92;1.80;;;;;;;;;;4884161;29;20348;-79
2022/05/27 04:12:36;;;;;;;2.17;2.00;;;;;;;;;;4912743;29;20047;-79
2022/05/27 04:15:05;;;;;;;3.40;2.10;;;;;;;;;;4890206;29;20384;-79
2022/05/27 04:17:32;;;;;;;3.65;1.90;;;;;;;;;;4888060;29;20112;-79
2022/05/27 04:20:00;;;;;;;2.65;1.70;;;;;;;;;;4900055;29;20072;-79
2022/05/27 04:22:28;;;;;;;2.00;1.90;;;;;;;;;;4878988;29;20056;-79
2022/05/27 04:24:56;;;;;;;2.50;2.10;;;;;;;;;;4903181;29;20053;-79
2022/05/27 04:27:25;;;;;;;2.90;2.25;;;;;;;;;;4914321;29;20044;-79
2022/05/27 04:29:52;;;;;;;2.30;2.10;;;;;;;;;;4917286;29;20127;-79
2022/05/27 04:32:25;;;;;;;2.13;2.03;;;;;;;;;;4916182;29;20070;-79
2022/05/27 04:34:53;;;;;;;3.65;2.30;;;;;;;;;;4911383;29;20139;-79
2022/05/27 04:37:21;;;;;;;3.10;1.98;;;;;;;;;;4896784;29;20067;-79
2022/05/27 04:39:49;;;;;;;2.58;2.40;;;;;;;;;;4896767;29;20471;-80
2022/05/27 04:42:16;;;;;;;2.78;2.38;;;;;;;;;;4912991;29;20251;-79
2022/05/27 04:44:44;;;;;;;2.40;2.13;;;;;;;;;;4894834;29;20438;-79
2022/05/27 04:47:12;;;;;;;2.40;2.20;;;;;;;;;;4889626;29;20249;-79
2022/05/27 04:49:50;;;;;;;2.03;1.92;;;;;;;;;;4874484;29;20049;-79
2022/05/27 04:52:18;;;;;;;2.17;2.08;;;;;;;;;;4889982;29;20066;-79
2022/05/27 04:54:46;;;;;;;2.92;2.50;;;;;;;;;;4874646;29;20098;-79
2022/05/27 04:57:18;;;;;;;4.50;2.20;;;;;;;;;;4874965;29;20057;-79
2022/05/27 04:59:46;;;;;;;2.55;2.15;;;;;;;;;;4864843;29;20164;-79
2022/05/27 05:02:17;;;;;;;2.15;2.05;;;;;;;;;;4875469;29;20052;-79
2022/05/27 05:04:45;;;;;;;2.70;2.50;;;;;;;;;;4892343;29;20052;-79
2022/05/27 05:07:12;;;;;;;2.40;2.20;;;;;;;;;;4891557;29;20425;-79
2022/05/27 05:09:41;;;;;;;1.80;1.70;;;;;;;;;;4892445;29;20074;-79
2022/05/27 05:12:09;;;;;;;2.45;2.25;;;;;;;;;;4892712;29;20498;-79
2022/05/27 05:14:37;;;;;;;3.25;2.13;;;;;;;;;;4884417;29;20452;-79
2022/05/27 05:17:04;;;;;;;2.67;2.10;;;;;;;;;;4867649;29;20067;-80
2022/05/27 05:19:32;;;;;;;3.33;2.05;;;;;;;;;;4867773;29;20060;-79
2022/05/27 05:21:59;;;;;;;2.30;2.20;;;;;;;;;;4892978;29;20048;-79
2022/05/27 05:24:27;;;;;;;2.42;1.90;;;;;;;;;;4885875;29;20036;-78
2022/05/27 05:26:54;;;;;;;2.60;2.08;;;;;;;;;;4911372;29;20412;-79
2022/05/27 05:29:21;;;;;;;4.45;2.08;;;;;;;;;;4904985;29;20725;-80
2022/05/27 05:31:49;;;;;;;2.25;2.15;;;;;;;;;;4878370;29;20044;-79
2022/05/27 05:41:13;;;;;;;2.50;2.30;;;;;;;;;;4796112;29;20538;-79
2022/05/27 05:44:26;;;;;;;2.20;2.10;;;;;;;;;;4893690;29;20055;-79
2022/05/27 05:47:26;;;;;;;5.95;2.33;;;;;;;;;;4916899;24;20139;-80
2022/05/27 05:53:28;;;;;;;2.20;2.10;;;;;;;;;;4889432;29;20054;-79
2022/05/27 05:55:59;;;;;;;3.05;2.20;;;;;;;;;;4910970;29;20067;-79
2022/05/27 05:58:26;;;;;;;2.42;2.22;;;;;;;;;;4910162;29;20126;-79
2022/05/27 06:00:53;;;;;;;2.38;2.17;;;;;;;;;;4908768;29;20505;-79
2022/05/27 06:03:21;;;;;;;3.47;2.30;;;;;;;;;;4903568;29;20052;-79
2022/05/27 06:05:59;;;;;;;3.03;2.33;;;;;;;;;;4906348;29;20047;-79
2022/05/27 06:08:42;;;;;;;1.80;1.70;;;;;;;;;;4887312;29;20123;-79
2022/05/27 06:11:13;;;;;;;2.45;2.03;;;;;;;;;;4882998;29;20134;-78
2022/05/27 06:14:28;;;;;;;2.20;2.10;;;;;;;;;;4878566;29;20076;-79
2022/05/27 06:18:19;;;;;;;2.35;1.80;;;;;;;;;;4906142;29;20050;-79
2022/05/27 06:21:30;;;;;;;5.70;2.10;;;;;;;;;;4900538;29;20052;-79
2022/05/27 06:25:21;;;;;;;;;;;;;;;;;;;;;
2022/05/27 06:36:43;;;;;;;3.88;1.92;;;;;;;;;;4884178;29;20049;-81
2022/05/27 06:39:10;;;;;;;2.00;1.80;;;;;;;;;;4883332;29;20068;-81
2022/05/27 06:41:38;;;;;;;2.15;1.95;;;;;;;;;;4862398;29;20048;-81
2022/05/27 06:44:06;;;;;;;2.05;1.90;;;;;;;;;;4883641;29;20113;-83
2022/05/27 06:46:34;;;;;;;4.45;1.60;;;;;;;;;;4865012;29;20037;-83
2022/05/27 06:49:02;;;;;;;3.45;1.70;;;;;;;;;;4861558;29;20782;-83
2022/05/27 06:51:29;;;;;;;1.90;1.67;;;;;;;;;;4866888;29;20056;-82
2022/05/27 06:53:57;;;;;;;3.38;1.42;;;;;;;;;;4869250;29;20128;-81
2022/05/27 06:56:24;;;;;;;3.63;1.42;;;;;;;;;;4881358;29;20060;-82
2022/05/27 06:58:52;;;;;;;1.85;1.38;;;;;;;;;;4882819;29;20052;-83
2022/05/27 07:01:19;;;;;;;1.70;1.30;;;;;;;;;;4871502;29;20513;-83
2022/05/27 07:03:47;;;;;;;4.18;2.20;;;;;;;;;;4872977;29;20571;-82
2022/05/27 07:06:14;;;;;;;2.83;1.30;;;;;;;;;;4885937;29;20072;-84
2022/05/27 07:08:44;;;;;;;1.42;1.10;;;;;;;;;;4869479;29;20217;-83
2022/05/27 07:11:12;;;;;;;2.33;1.35;;;;;;;;;;4870137;29;20060;-83
2022/05/27 07:13:39;;;;;;;1.20;1.10;;;;;;;;;;4868522;29;20075;-82
2022/05/27 07:16:07;;;;;;;1.50;1.30;;;;;;;;;;4854557;29;20067;-83
2022/05/27 07:18:34;;;;;;;3.05;1.30;;;;;;;;;;4880977;29;20128;-83
2022/05/27 07:21:03;;;;;;;3.08;1.30;;;;;;;;;;4874499;29;20589;-82
2022/05/27 07:23:30;;;;;;;2.33;1.20;;;;;;;;;;4875704;29;20649;-83
2022/05/27 07:25:58;;;;;;;2.92;1.10;;;;;;;;;;4896832;23;20156;-81
2022/05/27 07:28:26;;;;;;;4.43;1.52;;;;;;;;;;4878451;29;20051;-79
2022/05/27 07:30:55;;;;;;;2.08;1.30;;;;;;;;;;4860787;29;20112;-80
2022/05/27 07:33:23;;;;;;;4.40;4.00;;;;;;;;;;4850783;29;20057;-80
2022/05/27 07:35:50;;;;;;;1.55;1.10;;;;;;;;;;4890771;29;20049;-80
2022/05/27 07:38:18;;;;;;;2.47;0.90;;;;;;;;;;4865872;29;20148;-81
2022/05/27 07:40:45;;;;;;;3.65;1.50;;;;;;;;;;4874069;29;20120;-81
2022/05/27 07:43:13;;;;;;;1.42;1.33;;;;;;;;;;4887113;29;20490;-79
2022/05/27 07:45:41;;;;;;;5.40;1.10;;;;;;;;;;4891862;29;20450;-81
2022/05/27 07:48:10;;;;;;;10.82;9.93;;;;;;;;;;4889769;29;20135;-81
2022/05/27 07:50:38;;;;;;;3.17;1.20;;;;;;;;;;4873470;29;20421;-81
2022/05/27 07:53:06;;;;;;;1.00;1.00;;;;;;;;;;4886151;29;20450;-79
2022/05/27 07:55:33;;;;;;;1.23;1.00;;;;;;;;;;4874933;29;20066;-81
2022/05/27 07:58:01;;;;;;;2.47;1.10;;;;;;;;;;4852113;29;20124;-82
2022/05/27 08:00:30;;;;;;;0.93;0.90;;;;;;;;;;4880540;29;20052;-81
2022/05/27 08:02:58;;;;;;;1.13;1.00;;;;;;;;;;4901240;29;20143;-82
2022/05/27 08:05:27;;;;;;;3.38;1.00;;;;;;;;;;4895585;29;20053;-80
2022/05/27 08:07:55;;;;;;;1.95;1.00;;;;;;;;;;4895572;29;20093;-81
2022/05/27 08:10:24;;;;;;;1.52;0.98;;;;;;;;;;4880646;29;20048;-81
2022/05/27 08:12:51;;;;;;;2.55;0.90;;;;;;;;;;4886005;29;20474;-80
2022/05/27 08:15:19;;;;;;;1.20;1.08;;;;;;;;;;4886108;29;20470;-80
2022/05/27 08:17:46;;;;;;;4.80;1.00;;;;;;;;;;4885464;29;20596;-80
2022/05/27 08:20:18;;;;;;;4.05;0.88;;;;;;;;;;4880718;29;20085;-80
2022/05/27 08:22:46;;;;;;;3.17;1.15;;;;;;;;;;4896137;29;20052;-80
2022/05/27 08:25:14;;;;;;;1.83;1.13;;;;;;;;;;4888830;29;20155;-80
2022/05/27 08:27:42;;;;;;;9.60;3.97;;;;;;;;;;4877123;29;20045;-81
2022/05/27 08:30:11;;;;;;;1.80;1.20;;;;;;;;;;4895278;29;20044;-80
2022/05/27 08:32:38;;;;;;;2.47;1.10;;;;;;;;;;4885041;29;20059;-82
2022/05/27 08:38:09;;;;;;;4.53;1.23;;;;;;;;;;4869550;29;20461;-80
2022/05/27 08:40:55;;;;;;;1.98;1.10;;;;;;;;;;4889748;29;20044;-81
2022/05/27 08:43:29;;;;;;;1.10;0.90;;;;;;;;;;4894703;29;20045;-80
2022/05/27 08:46:00;;;;;;;3.55;1.00;;;;;;;;;;4882587;29;20158;-81
2022/05/27 08:48:32;;;;;;;3.67;1.23;;;;;;;;;;4869960;29;20056;-79
2022/05/27 08:51:04;;;;;;;2.50;1.15;;;;;;;;;;4873660;29;20725;-82
2022/05/27 08:53:47;;;;;;;1.67;1.58;;;;;;;;;;4884318;29;20433;-81
2022/05/27 08:59:27;;;;;;;2.60;1.33;;;;;;;;;;4888783;29;20053;-81
2022/05/27 09:02:00;;;;;;;2.65;1.40;;;;;;;;;;4889680;29;20059;-81
2022/05/27 09:04:39;;;;;;;9.35;6.10;;;;;;;;;;4873517;29;20053;-81
2022/05/27 09:07:25;;;;;;;1.88;1.65;;;;;;;;;;4897637;29;20108;-82
2022/05/27 09:09:54;;;;;;;1.58;1.20;;;;;;;;;;4896348;29;20036;-82
2022/05/27 09:12:26;;;;;;;4.18;1.40;;;;;;;;;;4908899;29;20496;-81
2022/05/27 09:15:08;;;;;;;1.15;1.05;;;;;;;;;;4899591;29;20036;-81
2022/05/27 09:17:38;;;;;;;3.63;1.40;;;;;;;;;;4892915;29;20045;-80
2022/05/27 09:20:17;;;;;;;3.80;1.17;;;;;;;;;;4894485;29;20064;-81
2022/05/27 09:22:53;;;;;;;1.40;1.10;;;;;;;;;;4873368;29;20044;-81
2022/05/27 09:25:29;;;;;;;4.35;1.30;;;;;;;;;;4896796;29;20564;-81
2022/05/27 09:28:15;;;;;;;2.00;1.20;;;;;;;;;;4873223;29;20529;-80
2022/05/27 09:30:43;;;;;;;2.92;1.15;;;;;;;;;;4876449;29;20047;-81
2022/05/27 09:33:12;;;;;;;2.00;1.05;;;;;;;;;;4881171;29;20242;-80
2022/05/27 09:35:49;;;;;;;1.42;1.20;;;;;;;;;;4893473;29;20060;-81
2022/05/27 09:38:19;;;;;;;3.05;1.30;;;;;;;;;;4893756;29;20128;-81
2022/05/27 09:40:48;;;;;;;2.67;1.40;;;;;;;;;;4877050;29;20044;-80
2022/05/27 09:43:28;;;;;;;2.08;1.45;;;;;;;;;;4878972;29;20689;-79
2022/05/27 09:45:56;;;;;;;3.55;1.10;;;;;;;;;;4877312;29;20037;-80
2022/05/27 09:48:25;;;;;;;3.28;1.70;;;;;;;;;;4884755;29;20056;-80
2022/05/27 09:50:53;;;;;;;2.00;1.20;;;;;;;;;;4870499;29;20044;-81
2022/05/27 09:53:23;;;;;;;2.70;1.30;;;;;;;;;;4877234;29;20060;-81
2022/05/27 09:55:57;;;;;;;2.42;1.38;;;;;;;;;;4887625;29;20055;-81
2022/05/27 09:58:26;;;;;;;3.63;1.80;;;;;;;;;;4904685;29;20105;-80
2022/05/27 10:00:54;;;;;;;1.00;1.00;;;;;;;;;;4899969;29;20102;-81
2022/05/27 10:03:27;;;;;;;2.97;1.73;;;;;;;;;;4873724;29;20043;-81
2022/05/27 10:06:07;;;;;;;3.22;1.27;;;;;;;;;;4892405;29;20056;-81
2022/05/27 10:08:36;;;;;;;2.33;1.50;;;;;;;;;;4855885;29;20052;-80
2022/05/27 10:11:08;;;;;;;3.45;1.83;;;;;;;;;;4896283;29;20108;-81
2022/05/27 10:13:35;;;;;;;1.98;1.55;;;;;;;;;;4877173;29;20075;-80
2022/05/27 10:16:11;;;;;;;10.02;1.27;;;;;;;;;;4899236;29;20052;-81
2022/05/27 10:18:40;;;;;;;1.63;1.27;;;;;;;;;;4883924;29;20052;-81
2022/05/27 10:21:11;;;;;;;4.68;1.55;;;;;;;;;;4888757;29;20059;-81
2022/05/27 10:23:41;;;;;;;2.20;1.13;;;;;;;;;;4876748;29;20049;-82
2022/05/27 10:26:38;;;;;;;4.20;1.40;;;;;;;;;;4890136;29;20051;-81
2022/05/27 10:29:06;;;;;;;3.67;1.20;;;;;;;;;;4878606;29;20090;-81
2022/05/27 10:31:35;;;;;;;1.48;1.20;;;;;;;;;;4883344;29;20580;-81
2022/05/27 10:34:02;;;;;;;1.85;1.27;;;;;;;;;;4884829;29;20044;-82
2022/05/27 10:36:29;;;;;;;2.13;1.60;;;;;;;;;;4883687;29;20044;-81
2022/05/27 10:39:09;;;;;;;1.30;1.17;;;;;;;;;;4868440;29;20048;-81
2022/05/27 10:42:12;;;;;;;4.35;1.38;;;;;;;;;;4875723;29;20129;-81
2022/05/27 10:45:01;;;;;;;3.97;1.42;;;;;;;;;;4846881;29;20061;-81
2022/05/27 10:47:48;;;;;;;1.17;1.10;;;;;;;;;;4867719;29;20048;-81
2022/05/27 10:50:21;;;;;;;1.60;1.40;;;;;;;;;;4869089;29;20049;-81
2022/05/27 10:52:49;;;;;;;4.05;2.08;;;;;;;;;;4875030;29;20049;-81
2022/05/27 10:55:25;;;;;;;2.20;1.58;;;;;;;;;;4889823;29;20048;-81
2022/05/27 11:03:59;;;;;;;4.20;1.55;;;;;;;;;;4894187;29;20056;-82
2022/05/27 11:06:35;;;;;;;3.05;1.13;;;;;;;;;;4862229;29;20052;-83
2022/05/27 11:09:21;;;;;;;2.50;1.23;;;;;;;;;;4883407;29;20602;-82
2022/05/27 11:12:00;;;;;;;3.13;1.30;;;;;;;;;;4876938;29;20383;-82
2022/05/27 11:15:12;;;;;;;1.52;1.30;;;;;;;;;;4885279;29;20052;-81
2022/05/27 11:17:42;;;;;;;2.88;1.40;;;;;;;;;;4880354;29;20055;-83
2022/05/27 11:20:25;;;;;;;1.90;1.20;;;;;;;;;;4899198;29;20559;-83
2022/05/27 11:23:04;;;;;;;2.15;1.10;;;;;;;;;;4897404;29;20036;-84
2022/05/27 11:25:50;;;;;;;0.82;0.82;;;;;;;;;;4873632;29;20048;-81
2022/05/27 11:28:36;;;;;;;2.63;1.20;;;;;;;;;;4874995;29;20132;-83
2022/05/27 11:31:27;;;;;;;1.00;0.90;;;;;;;;;;4890126;29;20057;-82
2022/05/27 11:34:03;;;;;;;1.70;1.00;;;;;;;;;;4892051;29;20044;-82
2022/05/27 11:36:33;;;;;;;2.33;1.40;;;;;;;;;;4879999;29;20048;-81
2022/05/27 11:39:19;;;;;;;1.90;1.05;;;;;;;;;;4862635;29;20373;-82
2022/05/27 11:41:47;;;;;;;2.78;1.45;;;;;;;;;;4879050;29;20071;-81
2022/05/27 11:44:18;;;;;;;1.52;1.10;;;;;;;;;;4872433;29;20280;-81
2022/05/27 11:46:45;;;;;;;1.27;0.80;;;;;;;;;;4867108;29;20037;-80
2022/05/27 11:49:42;;;;;;;2.35;1.00;;;;;;;;;;4885235;29;20045;-81
2022/05/27 11:52:09;;;;;;;3.35;2.17;;;;;;;;;;4849316;29;20088;-82
2022/05/27 11:54:56;;;;;;;1.00;1.00;;;;;;;;;;4894234;29;20080;-82
2022/05/27 11:57:47;;;;;;;1.88;1.20;;;;;;;;;;4889155;29;20078;-81
2022/05/27 12:00:18;;;;;;;1.23;0.95;;;;;;;;;;4876852;29;20046;-81
2022/05/27 12:02:52;;;;;;;1.63;0.90;;;;;;;;;;4892720;29;20036;-83
2022/05/27 12:05:22;;;;;;;1.70;0.88;;;;;;;;;;4861879;29;20144;-81
2022/05/27 12:08:05;;;;;;;3.25;1.15;;;;;;;;;;4873137;29;20097;-81
2022/05/27 12:10:44;;;;;;;0.80;0.80;;;;;;;;;;4888874;29;20032;-80
2022/05/27 12:13:19;;;;;;;1.75;1.05;;;;;;;;;;4890114;29;20421;-83
2022/05/27 12:15:50;;;;;;;4.25;1.00;;;;;;;;;;4858418;29;20084;-83
2022/05/27 12:18:21;;;;;;;1.33;0.80;;;;;;;;;;4892131;29;20047;-82
2022/05/27 12:20:49;;;;;;;1.13;0.90;;;;;;;;;;4889554;29;20079;-83
2022/05/27 12:23:16;;;;;;;2.88;1.17;;;;;;;;;;4887685;29;20268;-82
2022/05/27 12:25:51;;;;;;;3.95;0.90;;;;;;;;;;4871597;29;20144;-83
2022/05/27 12:28:24;;;;;;;0.88;0.77;;;;;;;;;;4882481;29;20048;-82
2022/05/27 12:30:52;;;;;;;2.00;0.70;;;;;;;;;;4864396;29;20044;-81
2022/05/27 12:33:23;;;;;;;1.35;0.68;;;;;;;;;;4883939;29;20441;-80
2022/05/27 12:36:00;;;;;;;1.17;0.52;;;;;;;;;;4865709;29;20044;-80
2022/05/27 12:38:29;;;;;;;4.47;0.98;;;;;;;;;;4866601;29;20135;-81
2022/05/27 12:41:00;;;;;;;1.20;0.70;;;;;;;;;;4885435;29;20049;-81
2022/05/27 12:43:32;;;;;;;1.48;0.73;;;;;;;;;;4868820;29;20040;-80
2022/05/27 12:46:00;;;;;;;1.75;1.00;;;;;;;;;;4874986;29;20059;-81
2022/05/27 12:48:38;;;;;;;2.42;1.60;;;;;;;;;;4895996;29;20053;-83
2022/05/27 12:51:29;;;;;;;1.70;0.60;;;;;;;;;;4873413;29;20085;-82
2022/05/27 12:53:57;;;;;;;0.60;0.57;;;;;;;;;;4875917;29;20040;-82
2022/05/27 13:02:29;;;;;;;3.63;0.75;;;;;;;;;;4882341;29;20049;-81
2022/05/27 13:04:58;;;;;;;2.30;0.75;;;;;;;;;;4885623;29;20040;-80
2022/05/27 13:07:35;;;;;;;1.08;0.75;;;;;;;;;;4890339;29;20040;-80
2022/05/27 13:10:02;;;;;;;;;;;;;;;;;;4860542;29;20053;-81
2022/05/27 13:12:45;;;;;;;1.95;0.57;;;;;;;;;;4871796;29;19923;-80
2022/05/27 13:15:14;;;;;;;3.95;0.88;;;;;;;;;;4870944;23;20057;-78
2022/05/27 13:17:46;;;;;;;5.90;0.70;;;;;;;;;;4885328;29;20037;-79
2022/05/27 13:20:17;;;;;;;3.00;0.90;;;;;;;;;;4883248;29;20139;-80
2022/05/27 13:22:50;;;;;;;2.03;0.82;;;;;;;;;;4869444;29;20045;-78
2022/05/27 13:25:24;;;;;;;1.92;0.90;;;;;;;;;;4865459;29;20515;-79
2022/05/27 13:27:56;;;;;;;1.98;0.60;;;;;;;;;;4864044;29;20234;-78
2022/05/27 13:30:44;;;;;;;2.28;0.73;;;;;;;;;;4851427;29;20045;-79
2022/05/27 13:33:12;;;;;;;0.98;0.75;;;;;;;;;;4867732;29;20048;-78
2022/05/27 13:35:43;;;;;;;3.25;0.93;;;;;;;;;;4848434;29;20550;-79
2022/05/27 13:38:12;;;;;;;2.47;0.80;;;;;;;;;;4851684;29;20124;-79
2022/05/27 13:40:40;;;;;;;6.22;1.20;;;;;;;;;;4852047;29;20049;-78
2022/05/27 13:43:10;;;;;;;3.58;0.70;;;;;;;;;;4850729;29;20048;-78
2022/05/27 13:45:47;;;;;;;3.55;0.75;;;;;;;;;;4846379;29;20045;-80
2022/05/27 13:48:31;;;;;;;0.82;0.68;;;;;;;;;;4866183;29;20041;-78
2022/05/27 13:51:10;;;;;;;1.42;0.80;;;;;;;;;;4856381;29;20071;-79
2022/05/27 13:53:39;;;;;;;2.55;0.70;;;;;;;;;;4870186;29;20467;-79
2022/05/27 13:56:17;;;;;;;2.13;0.88;;;;;;;;;;4834441;29;20281;-79
2022/05/27 13:59:05;;;;;;;1.83;0.82;;;;;;;;;;4874104;29;20523;-79
2022/05/27 14:01:38;;;;;;;6.32;1.00;;;;;;;;;;4854277;29;20106;-79
2022/05/27 14:04:13;;;;;;;2.05;0.82;;;;;;;;;;4864254;29;20045;-78
2022/05/27 14:06:42;;;;;;;1.90;0.93;;;;;;;;;;4850891;29;20048;-78
2022/05/27 14:09:21;;;;;;;2.78;1.00;;;;;;;;;;4852207;29;20069;-79
2022/05/27 14:11:51;;;;;;;3.40;1.20;;;;;;;;;;4868441;29;20076;-79
2022/05/27 14:14:23;;;;;;;4.22;0.80;;;;;;;;;;4840771;29;20077;-79
2022/05/27 14:16:50;;;;;;;0.70;0.70;;;;;;;;;;4872432;29;20048;-79
2022/05/27 14:19:31;;;;;;;4.88;0.90;;;;;;;;;;4839913;29;20065;-80
2022/05/27 14:25:27;;;;;;;0.82;0.75;;;;;;;;;;4874063;29;20499;-81
2022/05/27 14:27:59;;;;;;;1.00;0.70;;;;;;;;;;4869652;29;20040;-78
2022/05/27 14:30:33;;;;;;;1.40;0.70;;;;;;;;;;4866284;29;20053;-80
2022/05/27 14:33:01;;;;;;;2.38;0.63;;;;;;;;;;4858437;29;20065;-78
2022/05/27 14:35:31;;;;;;;2.80;1.40;;;;;;;;;;4876757;29;20052;-78
2022/05/27 14:37:58;;;;;;;4.10;1.17;;;;;;;;;;4869311;29;20053;-77
2022/05/27 14:40:32;;;;;;;6.30;1.20;;;;;;;;;;4865026;29;20048;-78
2022/05/27 14:43:01;;;;;;;2.28;0.80;;;;;;;;;;4854780;29;20503;-78
2022/05/27 14:45:48;;;;;;;1.55;0.82;;;;;;;;;;4840722;29;20059;-78
2022/05/27 14:48:20;;;;;;;2.15;1.00;;;;;;;;;;4868232;29;20045;-79
2022/05/27 14:50:48;;;;;;;2.85;1.10;;;;;;;;;;4852761;29;20037;-80
2022/05/27 14:53:19;;;;;;;3.00;0.82;;;;;;;;;;4863583;29;20048;-80
2022/05/27 14:55:48;;;;;;;2.53;0.90;;;;;;;;;;4852469;29;20080;-82
2022/05/27 14:58:16;;;;;;;0.93;0.93;;;;;;;;;;4867161;29;20065;-79
2022/05/27 15:00:46;;;;;;;4.25;1.00;;;;;;;;;;4869251;29;20048;-79
2022/05/27 15:03:27;;;;;;;2.38;1.27;;;;;;;;;;4849591;29;20064;-79
2022/05/27 15:05:55;;;;;;;1.10;1.00;;;;;;;;;;4870204;29;20044;-80
2022/05/27 15:08:23;;;;;;;2.35;1.00;;;;;;;;;;4851429;29;20053;-79
2022/05/27 15:11:15;;;;;;;2.00;1.08;;;;;;;;;;4869493;29;20114;-80
2022/05/27 15:14:03;;;;;;;2.15;1.00;;;;;;;;;;4852284;29;20072;-80
2022/05/27 15:16:35;;;;;;;1.45;0.95;;;;;;;;;;4866549;29;20045;-78
2022/05/27 15:19:17;;;;;;;1.95;1.83;;;;;;;;;;4839443;29;20056;-79
2022/05/27 15:21:55;;;;;;;2.55;1.73;;;;;;;;;;4870234;29;20053;-77
2022/05/27 15:24:46;;;;;;;1.92;1.20;;;;;;;;;;4856655;29;20067;-79
2022/05/27 15:33:07;;;;;;;7.03;1.20;;;;;;;;;;4869627;29;20147;-79
2022/05/27 15:35:42;;;;;;;2.45;0.95;;;;;;;;;;4854087;29;20076;-79
2022/05/27 15:38:11;;;;;;;2.00;1.23;;;;;;;;;;4873098;29;20049;-80
2022/05/27 15:40:40;;;;;;;1.77;1.10;;;;;;;;;;4855165;29;20049;-79
2022/05/27 15:43:15;;;;;;;1.42;1.05;;;;;;;;;;4873955;29;20044;-79
2022/05/27 15:45:44;;;;;;;3.35;1.00;;;;;;;;;;4840630;29;20057;-79
2022/05/27 15:48:12;;;;;;;1.40;1.08;;;;;;;;;;4852976;29;20053;-78
2022/05/27 15:50:42;;;;;;;2.20;1.00;;;;;;;;;;4857803;29;20070;-79
2022/05/27 15:53:10;;;;;;;2.47;0.93;;;;;;;;;;4840277;29;20408;-78
2022/05/27 15:55:40;;;;;;;3.45;1.00;;;;;;;;;;4853085;29;20148;-79
2022/05/27 15:58:08;;;;;;;1.13;0.90;;;;;;;;;;4869328;29;20041;-79
2022/05/27 16:00:36;;;;;;;3.78;1.02;;;;;;;;;;4870381;29;20141;-79
2022/05/27 16:03:04;;;;;;;11.18;1.13;;;;;;;;;;4862963;29;20049;-80
2022/05/27 16:05:37;;;;;;;1.55;1.08;;;;;;;;;;4852176;29;20053;-80